createdAt,value
2023-09-27T00:00:01.851Z,3.92
2023-09-27T00:02:28.988Z,4.50
2023-09-27T00:04:56.067Z,4.20
2023-09-27T00:07:22.958Z,4.03
2023-09-27T00:09:49.629Z,3.92
2023-09-27T00:12:16.828Z,3.85
2023-09-27T00:14:43.451Z,3.92
2023-09-27T00:17:10.162Z,4.30
2023-09-27T00:19:36.892Z,4.45
2023-09-27T00:22:03.633Z,4.47
2023-09-27T00:24:30.217Z,3.70
2023-09-27T00:26:56.851Z,3.90
2023-09-27T00:29:23.578Z,3.75
2023-09-27T00:31:50.297Z,3.80
2023-09-27T00:34:17.037Z,4.35
2023-09-27T00:36:43.744Z,4.20
2023-09-27T00:39:10.458Z,4.00
2023-09-27T00:41:37.002Z,4.03
2023-09-27T00:44:03.741Z,4.30
2023-09-27T00:46:30.623Z,4.43
2023-09-27T00:48:57.789Z,4.20
2023-09-27T00:51:24.431Z,4.32
2023-09-27T00:53:51.218Z,4.22
2023-09-27T00:56:18.127Z,3.58
2023-09-27T00:58:44.932Z,4.32
2023-09-27T01:01:14.190Z,4.00
2023-09-27T01:03:42.029Z,4.30
2023-09-27T01:06:09.660Z,4.15
2023-09-27T01:08:36.356Z,4.30
2023-09-27T01:11:05.473Z,4.20
2023-09-27T01:13:32.852Z,4.32
2023-09-27T01:15:59.472Z,4.35
2023-09-27T01:18:27.617Z,3.90
2023-09-27T01:20:54.346Z,3.85
2023-09-27T01:23:21.048Z,3.80
2023-09-27T01:25:51.909Z,4.10
2023-09-27T01:28:22.331Z,4.00
2023-09-27T01:30:48.946Z,3.78
2023-09-27T01:33:15.620Z,4.03
2023-09-27T01:35:44.905Z,4.18
2023-09-27T01:38:13.888Z,3.97
2023-09-27T01:40:45.696Z,4.35
2023-09-27T01:43:13.113Z,4.10
2023-09-27T01:45:40.252Z,4.15
2023-09-27T01:48:07.619Z,4.20
2023-09-27T01:50:36.140Z,4.07
2023-09-27T01:53:04.392Z,4.22
2023-09-27T01:55:31.294Z,4.35
2023-09-27T01:57:58.075Z,3.70
2023-09-27T02:00:24.804Z,4.07
2023-09-27T02:02:56.893Z,4.20
2023-09-27T02:05:24.685Z,4.10
2023-09-27T02:07:51.462Z,4.22
2023-09-27T02:10:18.096Z,3.83
2023-09-27T02:12:45.891Z,4.13
2023-09-27T02:15:14.376Z,3.65
2023-09-27T02:17:41.618Z,3.92
2023-09-27T02:20:11.391Z,4.43
2023-09-27T02:22:39.321Z,3.95
2023-09-27T02:25:12.811Z,4.35
2023-09-27T02:27:40.808Z,4.03
2023-09-27T02:30:12.403Z,3.95
2023-09-27T02:32:42.087Z,4.22
2023-09-27T02:35:10.496Z,3.97
2023-09-27T02:37:38.055Z,4.15
2023-09-27T02:40:14.798Z,4.25
2023-09-27T02:42:42.792Z,4.30
2023-09-27T02:45:10.566Z,4.43
2023-09-27T02:47:41.615Z,4.05
2023-09-27T02:50:12.297Z,4.63
2023-09-27T02:52:41.780Z,4.47
2023-09-27T02:55:12.289Z,4.32
2023-09-27T02:57:39.844Z,4.47
2023-09-27T03:00:07.878Z,4.10
2023-09-27T03:02:35.386Z,4.45
2023-09-27T03:05:05.833Z,4.10
2023-09-27T03:07:35.236Z,4.20
2023-09-27T03:10:09.861Z,3.88
2023-09-27T03:12:36.620Z,4.20
2023-09-27T03:15:04.377Z,4.25
2023-09-27T03:17:31.389Z,4.47
2023-09-27T03:19:58.178Z,4.03
2023-09-27T03:22:24.775Z,4.07
2023-09-27T03:24:52.490Z,4.07
2023-09-27T03:27:19.991Z,4.10
2023-09-27T03:29:47.522Z,4.05
2023-09-27T03:32:14.137Z,4.05
2023-09-27T03:34:40.774Z,4.10
2023-09-27T03:37:07.413Z,4.13
2023-09-27T03:39:37.031Z,4.10
2023-09-27T03:42:04.316Z,4.22
2023-09-27T03:44:31.034Z,4.40
2023-09-27T03:46:57.842Z,4.13
2023-09-27T03:49:24.620Z,4.03
2023-09-27T03:51:51.263Z,3.90
2023-09-27T03:54:17.820Z,3.65
2023-09-27T03:56:44.386Z,4.18
2023-09-27T03:59:11.293Z,4.07
2023-09-27T04:01:38.339Z,3.63
2023-09-27T04:04:06.349Z,4.28
2023-09-27T04:06:33.039Z,4.10
2023-09-27T04:08:59.546Z,4.03
2023-09-27T04:11:26.224Z,3.92
2023-09-27T04:13:53.066Z,3.58
2023-09-27T04:16:19.769Z,3.90
2023-09-27T04:18:46.443Z,4.15
2023-09-27T04:21:13.516Z,3.92
2023-09-27T04:23:42.507Z,3.95
2023-09-27T04:26:10.438Z,3.95
2023-09-27T04:28:37.259Z,4.20
2023-09-27T04:31:05.220Z,4.05
2023-09-27T04:33:32.882Z,4.05
2023-09-27T04:36:00.720Z,4.05
2023-09-27T04:38:27.680Z,3.63
2023-09-27T04:40:54.318Z,3.80
2023-09-27T04:43:21.383Z,3.90
2023-09-27T04:45:50.225Z,4.13
2023-09-27T04:48:16.992Z,3.88
2023-09-27T04:50:43.703Z,4.15
2023-09-27T04:53:10.941Z,4.20
2023-09-27T04:55:37.668Z,4.47
2023-09-27T04:58:04.559Z,4.53
2023-09-27T05:00:31.275Z,4.15
2023-09-27T05:02:58.261Z,4.30
2023-09-27T05:05:28.550Z,4.35
2023-09-27T05:07:55.313Z,4.80
2023-09-27T05:10:21.979Z,4.57
2023-09-27T05:13:01.677Z,4.55
2023-09-27T05:15:28.603Z,4.97
2023-09-27T05:17:55.363Z,4.90
2023-09-27T05:20:22.020Z,4.68
2023-09-27T05:22:48.765Z,5.25
2023-09-27T05:25:34.181Z,4.47
2023-09-27T05:28:00.856Z,4.63
2023-09-27T05:30:27.900Z,4.60
2023-09-27T05:32:54.631Z,4.30
2023-09-27T05:35:21.543Z,4.75
2023-09-27T05:37:48.119Z,4.30
2023-09-27T05:40:14.926Z,4.15
2023-09-27T05:42:42.022Z,4.35
2023-09-27T05:45:12.242Z,4.50
2023-09-27T05:47:40.424Z,5.15
2023-09-27T05:50:13.656Z,4.90
2023-09-27T05:52:45.366Z,5.22
2023-09-27T05:55:12.768Z,4.45
2023-09-27T05:57:39.958Z,4.30
2023-09-27T06:00:15.873Z,4.75
2023-09-27T06:02:42.553Z,4.20
2023-09-27T06:05:09.671Z,4.55
2023-09-27T06:07:36.609Z,4.60
2023-09-27T06:10:03.898Z,4.85
2023-09-27T06:12:30.444Z,4.38
2023-09-27T06:14:57.092Z,5.35
2023-09-27T06:17:24.289Z,4.80
2023-09-27T06:19:51.013Z,4.90
2023-09-27T06:22:18.148Z,4.90
2023-09-27T06:24:47.175Z,5.43
2023-09-27T06:27:13.794Z,5.40
2023-09-27T06:29:40.617Z,5.05
2023-09-27T06:32:07.793Z,5.70
2023-09-27T06:34:36.925Z,5.22
2023-09-27T06:37:03.552Z,5.20
2023-09-27T06:39:30.385Z,5.05
2023-09-27T06:41:57.067Z,5.43
2023-09-27T06:44:23.712Z,5.18
2023-09-27T06:46:51.100Z,4.90
2023-09-27T06:49:18.131Z,5.00
2023-09-27T06:51:45.350Z,4.68
2023-09-27T06:54:12.008Z,4.80
2023-09-27T06:56:38.777Z,5.10
2023-09-27T06:59:06.758Z,4.78
2023-09-27T07:01:33.744Z,4.97
2023-09-27T07:04:00.677Z,5.18
2023-09-27T07:06:27.301Z,5.28
2023-09-27T07:08:59.216Z,5.28
2023-09-27T07:11:26.310Z,5.03
2023-09-27T07:13:53.442Z,5.20
2023-09-27T07:16:29.889Z,5.50
2023-09-27T07:19:00.781Z,4.70
2023-09-27T07:21:29.331Z,5.20
2023-09-27T07:23:56.368Z,4.78
2023-09-27T07:26:23.255Z,5.30
2023-09-27T07:28:50.501Z,5.32
2023-09-27T07:31:18.385Z,5.15
2023-09-27T07:33:46.487Z,5.25
2023-09-27T07:36:13.493Z,5.47
2023-09-27T07:38:41.156Z,5.15
2023-09-27T07:41:11.681Z,5.50
2023-09-27T07:43:38.344Z,5.60
2023-09-27T07:46:08.490Z,5.25
2023-09-27T07:48:39.481Z,6.20
2023-09-27T07:51:13.163Z,5.68
2023-09-27T07:53:40.390Z,5.25
2023-09-27T07:56:10.752Z,5.03
2023-09-27T07:58:38.434Z,4.85
2023-09-27T08:01:06.143Z,5.57
2023-09-27T08:03:33.266Z,5.50
2023-09-27T08:06:00.252Z,5.70
2023-09-27T08:08:55.941Z,5.93
2023-09-27T08:11:23.172Z,5.57
2023-09-27T08:13:50.057Z,5.70
2023-09-27T08:16:17.464Z,4.78
2023-09-27T08:18:44.515Z,5.30
2023-09-27T08:21:11.496Z,4.75
2023-09-27T08:23:38.663Z,5.15
2023-09-27T08:26:05.363Z,4.80
2023-09-27T08:28:33.128Z,4.85
2023-09-27T08:31:59.278Z,4.78
2023-09-27T08:34:26.393Z,4.82
2023-09-27T08:36:53.769Z,5.45
2023-09-27T08:40:08.816Z,4.22
2023-09-27T08:42:35.725Z,4.65
2023-09-27T08:45:03.807Z,4.68
2023-09-27T08:47:32.574Z,4.60
2023-09-27T08:49:59.835Z,4.88
2023-09-27T08:52:28.651Z,4.70
2023-09-27T08:54:55.198Z,4.97
2023-09-27T08:57:24.591Z,4.80
2023-09-27T08:59:51.493Z,4.55
2023-09-27T09:02:20.071Z,4.80
2023-09-27T09:04:47.302Z,4.63
2023-09-27T09:07:14.112Z,5.25
2023-09-27T09:09:41.902Z,5.18
2023-09-27T09:12:10.205Z,4.70
2023-09-27T09:14:45.980Z,5.10
2023-09-27T09:17:18.976Z,5.03
2023-09-27T09:20:16.274Z,4.97
2023-09-27T09:22:44.355Z,5.10
2023-09-27T09:25:11.113Z,4.85
2023-09-27T09:27:38.992Z,5.30
2023-09-27T09:30:11.209Z,5.38
2023-09-27T09:32:50.590Z,4.85
2023-09-27T09:35:46.875Z,5.97
2023-09-27T09:38:23.154Z,6.05
2023-09-27T09:41:01.574Z,5.65
2023-09-27T09:43:37.478Z,5.70
2023-09-27T09:46:07.817Z,5.47
2023-09-27T09:48:35.904Z,5.57
2023-09-27T09:51:08.586Z,5.70
2023-09-27T09:53:42.414Z,5.55
2023-09-27T09:58:49.045Z,5.57
2023-09-27T10:01:22.438Z,6.07
2023-09-27T10:03:54.361Z,5.85
2023-09-27T10:06:36.463Z,5.13
2023-09-27T10:09:16.106Z,5.80
2023-09-27T10:11:47.354Z,5.25
2023-09-27T10:14:17.185Z,4.80
2023-09-27T10:16:44.784Z,5.20
2023-09-27T10:19:11.886Z,5.30
2023-09-27T10:22:04.045Z,5.47
2023-09-27T10:24:30.808Z,5.50
2023-09-27T10:26:57.518Z,5.47
2023-09-27T10:29:24.157Z,5.32
2023-09-27T10:31:57.409Z,5.80
2023-09-27T10:34:29.926Z,6.13
2023-09-27T10:37:10.416Z,5.18
2023-09-27T10:40:20.446Z,5.03
2023-09-27T10:42:47.284Z,5.20
2023-09-27T10:45:14.123Z,5.25
2023-09-27T10:47:41.684Z,5.00
2023-09-27T10:50:10.442Z,5.10
2023-09-27T10:52:38.535Z,5.35
2023-09-27T10:55:12.968Z,4.97
2023-09-27T10:57:42.927Z,4.85
2023-09-27T11:00:14.099Z,5.47
2023-09-27T11:02:43.025Z,4.60
2023-09-27T11:05:10.638Z,4.47
2023-09-27T11:07:49.872Z,4.90
2023-09-27T11:10:31.905Z,5.28
2023-09-27T11:13:13.299Z,4.03
2023-09-27T11:15:41.158Z,4.47
2023-09-27T11:18:14.280Z,4.47
2023-09-27T11:20:41.391Z,4.35
2023-09-27T11:23:08.414Z,4.68
2023-09-27T11:25:37.446Z,4.32
2023-09-27T11:28:04.775Z,4.80
2023-09-27T11:30:33.675Z,4.35
2023-09-27T11:33:06.716Z,4.72
2023-09-27T11:35:33.845Z,4.85
2023-09-27T11:38:14.621Z,4.53
2023-09-27T11:40:44.768Z,4.07
2023-09-27T11:43:13.373Z,4.20
2023-09-27T11:45:45.120Z,4.28
2023-09-27T11:48:12.090Z,3.63
2023-09-27T11:50:39.083Z,4.38
2023-09-27T11:53:06.198Z,3.42
2023-09-27T11:55:32.934Z,3.33
2023-09-27T11:58:00.480Z,3.17
2023-09-27T12:00:27.501Z,3.70
2023-09-27T12:02:57.975Z,3.47
2023-09-27T12:05:26.219Z,3.55
2023-09-27T12:07:53.840Z,3.30
2023-09-27T12:10:20.795Z,3.47
2023-09-27T12:12:47.494Z,3.47
2023-09-27T12:15:14.209Z,3.17
2023-09-27T12:17:40.883Z,3.28
2023-09-27T12:20:15.574Z,3.22
2023-09-27T12:22:43.635Z,3.40
2023-09-27T12:25:11.172Z,3.08
2023-09-27T12:27:37.808Z,3.03
2023-09-27T12:30:06.457Z,3.08
2023-09-27T12:32:33.352Z,3.10
2023-09-27T12:35:00.004Z,3.00
2023-09-27T12:37:27.085Z,2.65
2023-09-27T12:39:53.703Z,2.67
2023-09-27T12:42:20.402Z,3.13
2023-09-27T12:44:47.377Z,3.28
2023-09-27T12:47:16.131Z,2.88
2023-09-27T12:49:42.716Z,2.97
2023-09-27T12:52:09.179Z,2.75
2023-09-27T12:54:35.712Z,2.92
2023-09-27T12:57:02.322Z,3.17
2023-09-27T12:59:29.071Z,2.40
2023-09-27T13:01:56.868Z,3.10
2023-09-27T13:04:23.638Z,3.30
2023-09-27T13:06:50.420Z,3.40
2023-09-27T13:09:18.755Z,3.25
2023-09-27T13:11:45.521Z,2.88
2023-09-27T13:14:12.338Z,3.22
2023-09-27T13:16:38.954Z,3.25
2023-09-27T13:19:05.881Z,3.03
2023-09-27T13:21:32.384Z,3.20
2023-09-27T13:23:59.067Z,2.95
2023-09-27T13:26:27.382Z,2.95
2023-09-27T13:28:54.556Z,3.88
2023-09-27T13:31:21.939Z,3.55
2023-09-27T13:33:58.929Z,3.78
2023-09-27T13:36:38.199Z,3.47
2023-09-27T13:39:07.261Z,3.13
2023-09-27T13:41:43.181Z,3.17
2023-09-27T13:44:13.389Z,3.80
2023-09-27T13:46:40.567Z,3.47
2023-09-27T13:49:07.791Z,3.35
2023-09-27T13:51:37.381Z,3.20
2023-09-27T13:54:05.697Z,3.33
2023-09-27T13:56:32.341Z,3.38
2023-09-27T13:58:58.947Z,3.60
2023-09-27T14:01:26.005Z,3.90
2023-09-27T14:03:54.309Z,4.45
2023-09-27T14:06:24.404Z,3.67
2023-09-27T14:08:56.337Z,3.65
2023-09-27T14:11:24.160Z,3.58
2023-09-27T14:13:51.117Z,3.03
2023-09-27T14:16:18.147Z,3.35
2023-09-27T14:18:45.507Z,3.00
2023-09-27T14:21:14.022Z,3.65
2023-09-27T14:23:43.575Z,3.50
2023-09-27T14:26:12.006Z,3.17
2023-09-27T14:28:38.873Z,3.15
2023-09-27T14:31:06.713Z,3.50
2023-09-27T14:33:35.057Z,3.53
2023-09-27T14:36:05.333Z,3.55
2023-09-27T14:38:35.990Z,3.25
2023-09-27T14:41:10.159Z,2.88
2023-09-27T14:43:40.874Z,3.35
2023-09-27T14:46:12.068Z,3.10
2023-09-27T14:48:39.762Z,2.70
2023-09-27T14:51:07.175Z,3.10
2023-09-27T14:53:33.917Z,2.97
2023-09-27T14:56:08.061Z,2.80
2023-09-27T14:58:35.499Z,2.83
2023-09-27T15:01:03.758Z,3.38
2023-09-27T15:03:30.613Z,3.00
2023-09-27T15:05:57.547Z,2.97
2023-09-27T15:08:24.277Z,2.75
2023-09-27T15:10:51.076Z,3.13
2023-09-27T15:13:18.505Z,3.05
2023-09-27T15:15:46.529Z,2.85
2023-09-27T15:18:15.993Z,2.97
2023-09-27T15:20:43.131Z,2.72
2023-09-27T15:23:13.061Z,3.05
2023-09-27T15:25:40.196Z,3.03
2023-09-27T15:28:06.879Z,3.47
2023-09-27T15:30:34.658Z,3.10
2023-09-27T15:33:01.308Z,2.97
2023-09-27T15:35:28.068Z,3.22
2023-09-27T15:37:57.124Z,3.17
2023-09-27T15:40:24.794Z,3.33
2023-09-27T15:42:55.478Z,3.58
2023-09-27T15:45:23.011Z,3.67
2023-09-27T15:47:50.554Z,3.45
2023-09-27T15:50:17.521Z,3.72
2023-09-27T15:52:44.337Z,3.65
2023-09-27T15:55:11.912Z,3.30
2023-09-27T15:57:41.695Z,3.15
2023-09-27T16:00:12.511Z,3.13
2023-09-27T16:02:40.014Z,3.53
2023-09-27T16:05:09.689Z,3.58
2023-09-27T16:07:36.360Z,3.67
2023-09-27T16:10:05.360Z,3.50
2023-09-27T16:12:32.196Z,3.40
2023-09-27T16:14:58.842Z,4.18
2023-09-27T16:17:56.324Z,3.47
2023-09-27T16:20:22.976Z,3.75
2023-09-27T16:22:50.404Z,3.90
2023-09-27T16:25:17.566Z,3.88
2023-09-27T16:27:44.419Z,3.90
2023-09-27T16:30:12.483Z,3.83
2023-09-27T16:32:40.985Z,4.30
2023-09-27T16:35:08.142Z,4.18
2023-09-27T16:37:35.147Z,3.92
2023-09-27T16:40:02.421Z,3.85
2023-09-27T16:42:29.338Z,4.03
2023-09-27T16:44:56.274Z,4.20
2023-09-27T16:47:22.937Z,3.95
2023-09-27T16:49:50.280Z,4.57
2023-09-27T16:52:17.110Z,4.72
2023-09-27T16:54:44.227Z,5.20
2023-09-27T16:57:11.588Z,4.97
2023-09-27T16:59:38.371Z,5.00
2023-09-27T17:02:05.235Z,6.72
2023-09-27T17:04:34.991Z,5.90
2023-09-27T17:07:02.923Z,6.25
2023-09-27T17:09:29.825Z,5.85
2023-09-27T17:11:57.978Z,6.10
2023-09-27T17:14:24.622Z,5.60
2023-09-27T17:16:51.521Z,5.97
2023-09-27T17:19:25.360Z,6.65
2023-09-27T17:21:54.329Z,5.95
2023-09-27T17:24:22.318Z,5.97
2023-09-27T17:26:49.523Z,5.90
2023-09-27T17:29:17.196Z,5.57
2023-09-27T17:31:44.448Z,5.55
2023-09-27T17:34:14.658Z,5.45
2023-09-27T17:36:41.310Z,5.78
2023-09-27T17:39:08.249Z,6.20
2023-09-27T17:41:35.047Z,5.75
2023-09-27T17:44:01.770Z,5.53
2023-09-27T17:46:29.261Z,6.07
2023-09-27T17:49:01.151Z,5.32
2023-09-27T17:51:28.200Z,5.85
2023-09-27T17:53:55.044Z,6.05
2023-09-27T17:56:21.914Z,5.43
2023-09-27T17:58:48.874Z,5.68
2023-09-27T18:01:15.478Z,5.95
2023-09-27T18:03:42.748Z,5.70
2023-09-27T18:06:14.093Z,4.90
2023-09-27T18:08:41.146Z,5.43
2023-09-27T18:11:09.897Z,6.28
2023-09-27T18:13:36.872Z,6.03
2023-09-27T18:16:04.015Z,6.15
2023-09-27T18:18:30.707Z,6.20
2023-09-27T18:20:57.306Z,5.78
2023-09-27T18:23:23.927Z,8.52
2023-09-27T18:25:50.635Z,7.03
2023-09-27T18:28:17.807Z,7.15
2023-09-27T18:30:44.442Z,6.68
2023-09-27T18:33:11.162Z,6.47
2023-09-27T18:35:37.778Z,6.63
2023-09-27T18:38:04.510Z,6.25
2023-09-27T18:40:31.432Z,6.07
2023-09-27T18:42:58.051Z,6.97
2023-09-27T18:45:24.717Z,6.72
2023-09-27T18:47:52.794Z,5.80
2023-09-27T18:50:20.351Z,5.82
2023-09-27T18:52:47.401Z,6.13
2023-09-27T18:55:14.134Z,6.43
2023-09-27T18:57:40.781Z,6.78
2023-09-27T19:00:09.026Z,6.30
2023-09-27T19:02:35.974Z,6.28
2023-09-27T19:05:02.805Z,6.72
2023-09-27T19:07:29.553Z,6.20
2023-09-27T19:09:56.994Z,6.55
2023-09-27T19:12:24.012Z,6.50
2023-09-27T19:14:50.751Z,6.63
2023-09-27T19:17:17.386Z,6.85
2023-09-27T19:19:45.144Z,6.60
2023-09-27T19:22:12.152Z,6.88
2023-09-27T19:24:39.254Z,7.45
2023-09-27T19:27:05.819Z,10.35
2023-09-27T19:29:33.340Z,8.48
2023-09-27T19:32:00.101Z,7.85
2023-09-27T19:34:26.853Z,7.72
2023-09-27T19:36:53.465Z,8.15
2023-09-27T19:39:20.445Z,7.43
2023-09-27T19:41:47.134Z,7.95
2023-09-27T19:44:14.114Z,7.32
2023-09-27T19:46:40.900Z,7.07
2023-09-27T19:49:07.631Z,6.85
2023-09-27T19:51:34.286Z,7.03
2023-09-27T19:54:01.778Z,7.00
2023-09-27T19:56:28.398Z,7.15
2023-09-27T19:58:55.114Z,7.32
2023-09-27T20:01:35.596Z,6.65
2023-09-27T20:04:02.942Z,7.50
2023-09-27T20:06:31.175Z,7.78
2023-09-27T20:08:57.849Z,6.75
2023-09-27T20:11:24.653Z,7.88
2023-09-27T20:13:51.508Z,7.93
2023-09-27T20:16:18.224Z,7.43
2023-09-27T20:18:45.662Z,7.20
2023-09-27T20:21:12.286Z,7.53
2023-09-27T20:23:39.749Z,7.90
2023-09-27T20:26:06.949Z,7.18
2023-09-27T20:28:33.746Z,7.90
2023-09-27T20:31:00.442Z,7.53
2023-09-27T20:33:27.330Z,6.95
2023-09-27T20:35:53.979Z,7.65
2023-09-27T20:38:20.598Z,7.75
2023-09-27T20:40:47.269Z,7.38
2023-09-27T20:43:13.971Z,7.38
2023-09-27T20:45:41.111Z,7.50
2023-09-27T20:48:07.867Z,7.13
2023-09-27T20:50:34.539Z,7.43
2023-09-27T20:53:01.186Z,6.97
2023-09-27T20:55:27.881Z,7.35
2023-09-27T20:57:54.572Z,7.38
2023-09-27T21:00:23.546Z,6.70
2023-09-27T21:02:50.507Z,7.28
2023-09-27T21:05:17.374Z,6.80
2023-09-27T21:07:44.140Z,7.50
2023-09-27T21:10:10.977Z,7.25
2023-09-27T21:12:37.630Z,6.68
2023-09-27T21:15:04.706Z,6.25
2023-09-27T21:17:31.809Z,7.00
2023-09-27T21:19:58.571Z,6.30
2023-09-27T21:22:25.302Z,5.97
2023-09-27T21:24:51.936Z,6.15
2023-09-27T21:27:18.749Z,6.13
2023-09-27T21:29:45.349Z,5.72
2023-09-27T21:32:12.086Z,6.40
2023-09-27T21:34:38.749Z,5.80
2023-09-27T21:37:05.395Z,5.47
2023-09-27T21:39:32.042Z,6.20
2023-09-27T21:41:58.743Z,5.53
2023-09-27T21:44:25.473Z,5.53
2023-09-27T21:46:53.773Z,5.25
2023-09-27T21:49:21.280Z,5.22
2023-09-27T21:51:48.944Z,5.00
2023-09-27T21:54:16.029Z,5.55
2023-09-27T21:56:43.733Z,6.22
2023-09-27T21:59:10.433Z,5.15
2023-09-27T22:01:38.128Z,5.47
2023-09-27T22:04:06.911Z,5.07
2023-09-27T22:06:33.562Z,5.45
2023-09-27T22:09:00.408Z,4.93
2023-09-27T22:11:27.013Z,4.88
2023-09-27T22:13:54.769Z,4.20
2023-09-27T22:16:26.201Z,4.60
2023-09-27T22:18:52.802Z,5.05
2023-09-27T22:21:31.794Z,4.47
2023-09-27T22:24:11.424Z,4.72
2023-09-27T22:26:56.337Z,4.20
2023-09-27T22:29:22.941Z,4.13
2023-09-27T22:31:49.557Z,3.67
2023-09-27T22:34:38.808Z,4.53
2023-09-27T22:37:06.004Z,4.35
2023-09-27T22:39:32.729Z,3.85
2023-09-27T22:42:03.392Z,3.92
2023-09-27T22:44:30.014Z,4.30
2023-09-27T22:47:00.135Z,3.70
2023-09-27T22:49:27.480Z,4.03
2023-09-27T22:51:54.337Z,3.90
2023-09-27T22:54:22.829Z,3.67
2023-09-27T22:56:52.097Z,3.25
2023-09-27T22:59:18.784Z,3.95
2023-09-27T23:01:47.562Z,3.90
2023-09-27T23:04:17.249Z,3.50
2023-09-27T23:07:01.220Z,3.63
2023-09-27T23:09:35.347Z,3.55
2023-09-27T23:12:17.965Z,3.25
2023-09-27T23:15:08.350Z,3.40
2023-09-27T23:17:56.035Z,3.28
2023-09-27T23:20:29.605Z,3.28
2023-09-27T23:22:57.817Z,3.45
2023-09-27T23:25:40.976Z,3.55
2023-09-27T23:28:08.021Z,3.60
2023-09-27T23:30:34.741Z,3.70
2023-09-27T23:33:01.638Z,3.60
2023-09-27T23:35:31.440Z,3.00
2023-09-27T23:38:30.789Z,3.50
2023-09-27T23:41:00.434Z,3.47
2023-09-27T23:43:40.997Z,3.38
2023-09-27T23:46:15.086Z,3.00
2023-09-27T23:48:43.375Z,3.20
2023-09-27T23:51:09.977Z,3.10
2023-09-27T23:53:37.399Z,3.45
2023-09-27T23:56:07.843Z,3.10
2023-09-27T23:58:35.722Z,3.47
